sensor_id;sensor_type;location;lat;lon;timestamp;P1;durP1;ratioP1;P2;durP2;ratioP2
4575;SDS011;2300;51.874;8.430;2023-06-14T00:00:20;5.38;;;2.88;;
4575;SDS011;2300;51.874;8.430;2023-06-14T00:02:50;9.73;;;2.85;;
4575;SDS011;2300;51.874;8.430;2023-06-14T00:05:16;4.95;;;2.90;;
4575;SDS011;2300;51.874;8.430;2023-06-14T00:07:43;5.75;;;2.35;;
4575;SDS011;2300;51.874;8.430;2023-06-14T00:10:13;5.82;;;2.95;;
4575;SDS011;2300;51.874;8.430;2023-06-14T00:12:41;5.13;;;3.22;;
4575;SDS011;2300;51.874;8.430;2023-06-14T00:15:10;5.78;;;3.05;;
4575;SDS011;2300;51.874;8.430;2023-06-14T00:17:37;5.63;;;2.83;;
4575;SDS011;2300;51.874;8.430;2023-06-14T00:20:06;6.07;;;2.75;;
4575;SDS011;2300;51.874;8.430;2023-06-14T00:22:35;4.18;;;2.50;;
4575;SDS011;2300;51.874;8.430;2023-06-14T00:25:04;6.45;;;2.60;;
4575;SDS011;2300;51.874;8.430;2023-06-14T00:27:31;6.15;;;3.03;;
4575;SDS011;2300;51.874;8.430;2023-06-14T00:29:58;8.15;;;2.60;;
4575;SDS011;2300;51.874;8.430;2023-06-14T00:32:27;6.60;;;3.08;;
4575;SDS011;2300;51.874;8.430;2023-06-14T00:34:53;5.50;;;2.75;;
4575;SDS011;2300;51.874;8.430;2023-06-14T00:37:20;5.40;;;2.55;;
4575;SDS011;2300;51.874;8.430;2023-06-14T00:39:48;5.07;;;2.53;;
4575;SDS011;2300;51.874;8.430;2023-06-14T00:42:22;5.80;;;2.85;;
4575;SDS011;2300;51.874;8.430;2023-06-14T00:44:52;4.70;;;2.75;;
4575;SDS011;2300;51.874;8.430;2023-06-14T00:47:19;5.28;;;2.92;;
4575;SDS011;2300;51.874;8.430;2023-06-14T00:49:48;6.18;;;2.90;;
4575;SDS011;2300;51.874;8.430;2023-06-14T00:52:17;4.78;;;2.70;;
4575;SDS011;2300;51.874;8.430;2023-06-14T00:54:45;4.95;;;3.10;;
4575;SDS011;2300;51.874;8.430;2023-06-14T00:57:12;5.55;;;2.95;;
4575;SDS011;2300;51.874;8.430;2023-06-14T00:59:41;6.63;;;3.00;;
4575;SDS011;2300;51.874;8.430;2023-06-14T01:02:09;4.32;;;2.90;;
4575;SDS011;2300;51.874;8.430;2023-06-14T01:04:37;6.60;;;2.85;;
4575;SDS011;2300;51.874;8.430;2023-06-14T01:07:11;6.82;;;3.10;;
4575;SDS011;2300;51.874;8.430;2023-06-14T01:09:46;4.60;;;2.90;;
4575;SDS011;2300;51.874;8.430;2023-06-14T01:12:24;6.63;;;2.65;;
4575;SDS011;2300;51.874;8.430;2023-06-14T01:14:55;7.32;;;2.67;;
4575;SDS011;2300;51.874;8.430;2023-06-14T01:17:26;6.53;;;3.22;;
4575;SDS011;2300;51.874;8.430;2023-06-14T01:19:57;3.95;;;2.90;;
4575;SDS011;2300;51.874;8.430;2023-06-14T01:22:26;6.47;;;2.90;;
4575;SDS011;2300;51.874;8.430;2023-06-14T01:24:55;5.60;;;2.63;;
4575;SDS011;2300;51.874;8.430;2023-06-14T01:27:23;7.07;;;2.83;;
4575;SDS011;2300;51.874;8.430;2023-06-14T01:29:53;5.63;;;3.03;;
4575;SDS011;2300;51.874;8.430;2023-06-14T01:32:21;5.43;;;2.63;;
4575;SDS011;2300;51.874;8.430;2023-06-14T01:34:49;4.75;;;2.70;;
4575;SDS011;2300;51.874;8.430;2023-06-14T01:37:16;5.03;;;2.60;;
4575;SDS011;2300;51.874;8.430;2023-06-14T01:39:44;5.55;;;2.97;;
4575;SDS011;2300;51.874;8.430;2023-06-14T01:42:13;5.03;;;3.10;;
4575;SDS011;2300;51.874;8.430;2023-06-14T01:44:42;5.45;;;2.70;;
4575;SDS011;2300;51.874;8.430;2023-06-14T01:47:11;5.57;;;3.00;;
4575;SDS011;2300;51.874;8.430;2023-06-14T01:49:40;5.40;;;2.97;;
4575;SDS011;2300;51.874;8.430;2023-06-14T01:52:07;4.70;;;3.03;;
4575;SDS011;2300;51.874;8.430;2023-06-14T01:54:35;6.85;;;3.20;;
4575;SDS011;2300;51.874;8.430;2023-06-14T01:57:07;5.18;;;3.17;;
4575;SDS011;2300;51.874;8.430;2023-06-14T01:59:36;5.07;;;3.20;;
4575;SDS011;2300;51.874;8.430;2023-06-14T02:02:03;5.35;;;3.00;;
4575;SDS011;2300;51.874;8.430;2023-06-14T02:04:30;4.87;;;2.87;;
4575;SDS011;2300;51.874;8.430;2023-06-14T02:06:58;5.43;;;2.95;;
4575;SDS011;2300;51.874;8.430;2023-06-14T02:09:25;5.57;;;2.90;;
4575;SDS011;2300;51.874;8.430;2023-06-14T02:11:51;7.05;;;3.45;;
4575;SDS011;2300;51.874;8.430;2023-06-14T02:14:18;4.97;;;2.92;;
4575;SDS011;2300;51.874;8.430;2023-06-14T02:16:47;6.13;;;3.45;;
4575;SDS011;2300;51.874;8.430;2023-06-14T02:19:15;10.13;;;3.30;;
4575;SDS011;2300;51.874;8.430;2023-06-14T02:21:42;5.57;;;3.38;;
4575;SDS011;2300;51.874;8.430;2023-06-14T02:24:10;5.83;;;3.53;;
4575;SDS011;2300;51.874;8.430;2023-06-14T02:26:36;6.18;;;3.15;;
4575;SDS011;2300;51.874;8.430;2023-06-14T02:29:03;5.10;;;3.10;;
4575;SDS011;2300;51.874;8.430;2023-06-14T02:31:31;6.55;;;3.25;;
4575;SDS011;2300;51.874;8.430;2023-06-14T02:34:00;4.63;;;2.90;;
4575;SDS011;2300;51.874;8.430;2023-06-14T02:36:27;7.70;;;3.40;;
4575;SDS011;2300;51.874;8.430;2023-06-14T02:38:55;7.97;;;3.20;;
4575;SDS011;2300;51.874;8.430;2023-06-14T02:41:22;5.68;;;3.33;;
4575;SDS011;2300;51.874;8.430;2023-06-14T02:43:49;5.97;;;3.20;;
4575;SDS011;2300;51.874;8.430;2023-06-14T02:46:18;5.93;;;3.10;;
4575;SDS011;2300;51.874;8.430;2023-06-14T02:48:45;5.53;;;3.13;;
4575;SDS011;2300;51.874;8.430;2023-06-14T02:51:13;6.30;;;3.30;;
4575;SDS011;2300;51.874;8.430;2023-06-14T02:53:40;5.07;;;3.20;;
4575;SDS011;2300;51.874;8.430;2023-06-14T02:56:07;8.47;;;3.33;;
4575;SDS011;2300;51.874;8.430;2023-06-14T02:58:34;6.30;;;3.50;;
4575;SDS011;2300;51.874;8.430;2023-06-14T03:01:02;4.37;;;3.07;;
4575;SDS011;2300;51.874;8.430;2023-06-14T03:03:30;5.10;;;2.93;;
4575;SDS011;2300;51.874;8.430;2023-06-14T03:05:59;5.77;;;3.00;;
4575;SDS011;2300;51.874;8.430;2023-06-14T03:08:31;5.90;;;3.00;;
4575;SDS011;2300;51.874;8.430;2023-06-14T03:11:04;7.93;;;3.37;;
4575;SDS011;2300;51.874;8.430;2023-06-14T03:13:31;8.00;;;3.20;;
4575;SDS011;2300;51.874;8.430;2023-06-14T03:15:59;5.73;;;3.20;;
4575;SDS011;2300;51.874;8.430;2023-06-14T03:18:27;8.33;;;3.50;;
4575;SDS011;2300;51.874;8.430;2023-06-14T03:20:56;8.83;;;3.30;;
4575;SDS011;2300;51.874;8.430;2023-06-14T03:23:24;7.53;;;3.80;;
4575;SDS011;2300;51.874;8.430;2023-06-14T03:25:53;6.20;;;3.60;;
4575;SDS011;2300;51.874;8.430;2023-06-14T03:28:21;6.00;;;3.73;;
4575;SDS011;2300;51.874;8.430;2023-06-14T03:30:48;7.33;;;3.57;;
4575;SDS011;2300;51.874;8.430;2023-06-14T03:33:15;8.57;;;3.50;;
4575;SDS011;2300;51.874;8.430;2023-06-14T03:35:43;6.47;;;3.27;;
4575;SDS011;2300;51.874;8.430;2023-06-14T03:38:10;7.10;;;2.90;;
4575;SDS011;2300;51.874;8.430;2023-06-14T03:40:41;4.73;;;2.83;;
4575;SDS011;2300;51.874;8.430;2023-06-14T03:43:09;6.20;;;3.00;;
4575;SDS011;2300;51.874;8.430;2023-06-14T03:45:36;7.07;;;3.20;;
4575;SDS011;2300;51.874;8.430;2023-06-14T03:48:02;5.80;;;3.23;;
4575;SDS011;2300;51.874;8.430;2023-06-14T03:50:31;9.57;;;4.50;;
4575;SDS011;2300;51.874;8.430;2023-06-14T03:52:58;5.63;;;2.77;;
4575;SDS011;2300;51.874;8.430;2023-06-14T03:55:26;5.97;;;2.70;;
4575;SDS011;2300;51.874;8.430;2023-06-14T03:57:53;6.07;;;3.07;;
4575;SDS011;2300;51.874;8.430;2023-06-14T04:00:21;5.03;;;3.07;;
4575;SDS011;2300;51.874;8.430;2023-06-14T04:02:48;7.73;;;3.07;;
4575;SDS011;2300;51.874;8.430;2023-06-14T04:05:15;5.33;;;3.27;;
4575;SDS011;2300;51.874;8.430;2023-06-14T04:07:44;9.27;;;2.90;;
4575;SDS011;2300;51.874;8.430;2023-06-14T04:10:13;8.17;;;2.90;;
4575;SDS011;2300;51.874;8.430;2023-06-14T04:12:41;5.60;;;2.70;;
4575;SDS011;2300;51.874;8.430;2023-06-14T04:15:09;6.50;;;2.90;;
4575;SDS011;2300;51.874;8.430;2023-06-14T04:17:38;5.10;;;2.53;;
4575;SDS011;2300;51.874;8.430;2023-06-14T04:20:05;5.63;;;3.00;;
4575;SDS011;2300;51.874;8.430;2023-06-14T04:22:34;4.50;;;2.93;;
4575;SDS011;2300;51.874;8.430;2023-06-14T04:25:02;6.23;;;3.00;;
4575;SDS011;2300;51.874;8.430;2023-06-14T04:27:31;5.60;;;2.70;;
4575;SDS011;2300;51.874;8.430;2023-06-14T04:30:01;4.53;;;2.77;;
4575;SDS011;2300;51.874;8.430;2023-06-14T04:32:28;4.07;;;2.20;;
4575;SDS011;2300;51.874;8.430;2023-06-14T04:34:59;4.68;;;2.67;;
4575;SDS011;2300;51.874;8.430;2023-06-14T04:37:27;6.93;;;3.55;;
4575;SDS011;2300;51.874;8.430;2023-06-14T04:39:55;8.82;;;4.18;;
4575;SDS011;2300;51.874;8.430;2023-06-14T04:42:23;6.28;;;2.78;;
4575;SDS011;2300;51.874;8.430;2023-06-14T04:44:55;5.55;;;2.55;;
4575;SDS011;2300;51.874;8.430;2023-06-14T04:47:23;4.72;;;2.35;;
4575;SDS011;2300;51.874;8.430;2023-06-14T04:49:54;6.25;;;2.63;;
4575;SDS011;2300;51.874;8.430;2023-06-14T04:52:24;6.95;;;2.38;;
4575;SDS011;2300;51.874;8.430;2023-06-14T04:54:51;6.70;;;2.88;;
4575;SDS011;2300;51.874;8.430;2023-06-14T04:57:19;5.85;;;2.53;;
4575;SDS011;2300;51.874;8.430;2023-06-14T04:59:47;6.70;;;2.78;;
4575;SDS011;2300;51.874;8.430;2023-06-14T05:02:20;7.93;;;2.45;;
4575;SDS011;2300;51.874;8.430;2023-06-14T05:04:48;7.60;;;2.60;;
4575;SDS011;2300;51.874;8.430;2023-06-14T05:07:15;7.22;;;2.65;;
4575;SDS011;2300;51.874;8.430;2023-06-14T05:09:44;3.83;;;2.30;;
4575;SDS011;2300;51.874;8.430;2023-06-14T05:12:11;6.75;;;2.50;;
4575;SDS011;2300;51.874;8.430;2023-06-14T05:14:42;4.95;;;2.47;;
4575;SDS011;2300;51.874;8.430;2023-06-14T05:17:09;5.50;;;2.60;;
4575;SDS011;2300;51.874;8.430;2023-06-14T05:19:36;3.72;;;2.30;;
4575;SDS011;2300;51.874;8.430;2023-06-14T05:22:05;4.18;;;2.20;;
4575;SDS011;2300;51.874;8.430;2023-06-14T05:24:33;4.90;;;1.85;;
4575;SDS011;2300;51.874;8.430;2023-06-14T05:27:01;6.43;;;2.47;;
4575;SDS011;2300;51.874;8.430;2023-06-14T05:29:28;8.23;;;2.08;;
4575;SDS011;2300;51.874;8.430;2023-06-14T05:31:55;5.22;;;2.60;;
4575;SDS011;2300;51.874;8.430;2023-06-14T05:34:23;3.75;;;2.00;;
4575;SDS011;2300;51.874;8.430;2023-06-14T05:36:50;3.53;;;1.80;;
4575;SDS011;2300;51.874;8.430;2023-06-14T05:39:18;4.32;;;3.13;;
4575;SDS011;2300;51.874;8.430;2023-06-14T05:41:45;6.75;;;2.28;;
4575;SDS011;2300;51.874;8.430;2023-06-14T05:44:13;4.40;;;2.10;;
4575;SDS011;2300;51.874;8.430;2023-06-14T05:46:40;4.00;;;2.00;;
4575;SDS011;2300;51.874;8.430;2023-06-14T05:49:07;3.28;;;1.83;;
4575;SDS011;2300;51.874;8.430;2023-06-14T05:51:34;4.38;;;1.70;;
4575;SDS011;2300;51.874;8.430;2023-06-14T05:54:02;5.75;;;2.20;;
4575;SDS011;2300;51.874;8.430;2023-06-14T05:56:32;3.38;;;1.83;;
4575;SDS011;2300;51.874;8.430;2023-06-14T05:58:59;4.25;;;1.70;;
4575;SDS011;2300;51.874;8.430;2023-06-14T06:01:28;5.07;;;1.63;;
4575;SDS011;2300;51.874;8.430;2023-06-14T06:03:55;4.05;;;1.95;;
4575;SDS011;2300;51.874;8.430;2023-06-14T06:06:22;3.20;;;1.55;;
4575;SDS011;2300;51.874;8.430;2023-06-14T06:08:49;4.88;;;1.52;;
4575;SDS011;2300;51.874;8.430;2023-06-14T06:11:16;4.78;;;1.77;;
4575;SDS011;2300;51.874;8.430;2023-06-14T06:13:43;3.05;;;1.70;;
4575;SDS011;2300;51.874;8.430;2023-06-14T06:16:11;4.50;;;1.77;;
4575;SDS011;2300;51.874;8.430;2023-06-14T06:18:41;7.82;;;2.30;;
4575;SDS011;2300;51.874;8.430;2023-06-14T06:21:08;3.60;;;1.65;;
4575;SDS011;2300;51.874;8.430;2023-06-14T06:23:35;38.53;;;8.35;;
4575;SDS011;2300;51.874;8.430;2023-06-14T06:26:02;5.85;;;2.00;;
4575;SDS011;2300;51.874;8.430;2023-06-14T06:28:30;4.50;;;1.65;;
4575;SDS011;2300;51.874;8.430;2023-06-14T06:30:57;8.07;;;1.70;;
4575;SDS011;2300;51.874;8.430;2023-06-14T06:33:24;2.92;;;1.38;;
4575;SDS011;2300;51.874;8.430;2023-06-14T06:35:53;2.80;;;1.45;;
4575;SDS011;2300;51.874;8.430;2023-06-14T06:38:19;4.80;;;2.15;;
4575;SDS011;2300;51.874;8.430;2023-06-14T06:40:46;3.63;;;1.08;;
4575;SDS011;2300;51.874;8.430;2023-06-14T06:43:13;2.22;;;0.88;;
4575;SDS011;2300;51.874;8.430;2023-06-14T06:45:42;3.22;;;0.95;;
4575;SDS011;2300;51.874;8.430;2023-06-14T06:48:09;1.85;;;1.02;;
4575;SDS011;2300;51.874;8.430;2023-06-14T06:50:37;2.63;;;1.30;;
4575;SDS011;2300;51.874;8.430;2023-06-14T06:53:06;4.28;;;0.98;;
4575;SDS011;2300;51.874;8.430;2023-06-14T06:55:32;6.10;;;1.10;;
4575;SDS011;2300;51.874;8.430;2023-06-14T06:57:59;4.18;;;1.10;;
4575;SDS011;2300;51.874;8.430;2023-06-14T07:00:26;2.75;;;1.10;;
4575;SDS011;2300;51.874;8.430;2023-06-14T07:02:53;2.95;;;1.10;;
4575;SDS011;2300;51.874;8.430;2023-06-14T07:05:20;2.22;;;1.10;;
4575;SDS011;2300;51.874;8.430;2023-06-14T07:07:47;2.55;;;1.10;;
4575;SDS011;2300;51.874;8.430;2023-06-14T07:10:16;6.82;;;1.17;;
4575;SDS011;2300;51.874;8.430;2023-06-14T07:12:43;2.75;;;1.48;;
4575;SDS011;2300;51.874;8.430;2023-06-14T07:15:10;1.90;;;1.13;;
4575;SDS011;2300;51.874;8.430;2023-06-14T07:17:38;3.15;;;1.20;;
4575;SDS011;2300;51.874;8.430;2023-06-14T07:20:05;4.50;;;1.20;;
4575;SDS011;2300;51.874;8.430;2023-06-14T07:22:38;3.42;;;1.20;;
4575;SDS011;2300;51.874;8.430;2023-06-14T07:25:07;2.90;;;1.02;;
4575;SDS011;2300;51.874;8.430;2023-06-14T07:27:37;1.88;;;1.10;;
4575;SDS011;2300;51.874;8.430;2023-06-14T07:30:04;2.53;;;0.82;;
4575;SDS011;2300;51.874;8.430;2023-06-14T07:32:32;3.50;;;1.80;;
4575;SDS011;2300;51.874;8.430;2023-06-14T07:34:58;2.00;;;1.25;;
4575;SDS011;2300;51.874;8.430;2023-06-14T07:37:25;3.75;;;1.40;;
4575;SDS011;2300;51.874;8.430;2023-06-14T07:39:52;2.13;;;1.20;;
4575;SDS011;2300;51.874;8.430;2023-06-14T07:42:19;4.60;;;1.35;;
4575;SDS011;2300;51.874;8.430;2023-06-14T07:44:47;1.85;;;1.20;;
4575;SDS011;2300;51.874;8.430;2023-06-14T07:47:15;3.47;;;1.20;;
4575;SDS011;2300;51.874;8.430;2023-06-14T07:49:42;3.67;;;1.30;;
4575;SDS011;2300;51.874;8.430;2023-06-14T07:52:09;1.73;;;1.05;;
4575;SDS011;2300;51.874;8.430;2023-06-14T07:54:36;6.05;;;1.10;;
4575;SDS011;2300;51.874;8.430;2023-06-14T07:57:03;7.05;;;1.10;;
4575;SDS011;2300;51.874;8.430;2023-06-14T07:59:31;3.40;;;1.27;;
4575;SDS011;2300;51.874;8.430;2023-06-14T08:01:59;3.30;;;1.10;;
4575;SDS011;2300;51.874;8.430;2023-06-14T08:04:28;2.50;;;1.17;;
4575;SDS011;2300;51.874;8.430;2023-06-14T08:06:54;1.40;;;1.10;;
4575;SDS011;2300;51.874;8.430;2023-06-14T08:09:21;3.40;;;1.13;;
4575;SDS011;2300;51.874;8.430;2023-06-14T08:11:49;3.60;;;1.02;;
4575;SDS011;2300;51.874;8.430;2023-06-14T08:14:16;2.28;;;1.00;;
4575;SDS011;2300;51.874;8.430;2023-06-14T08:16:43;2.33;;;1.23;;
4575;SDS011;2300;51.874;8.430;2023-06-14T08:19:11;3.83;;;1.10;;
4575;SDS011;2300;51.874;8.430;2023-06-14T08:21:38;4.80;;;1.20;;
4575;SDS011;2300;51.874;8.430;2023-06-14T08:24:06;1.83;;;0.98;;
4575;SDS011;2300;51.874;8.430;2023-06-14T08:26:33;3.20;;;1.48;;
4575;SDS011;2300;51.874;8.430;2023-06-14T08:29:04;3.75;;;1.20;;
4575;SDS011;2300;51.874;8.430;2023-06-14T08:31:31;3.40;;;1.10;;
4575;SDS011;2300;51.874;8.430;2023-06-14T08:33:58;2.47;;;1.13;;
4575;SDS011;2300;51.874;8.430;2023-06-14T08:36:27;2.03;;;1.00;;
4575;SDS011;2300;51.874;8.430;2023-06-14T08:38:54;3.25;;;1.20;;
4575;SDS011;2300;51.874;8.430;2023-06-14T08:41:24;1.92;;;1.00;;
4575;SDS011;2300;51.874;8.430;2023-06-14T08:43:50;2.20;;;1.10;;
4575;SDS011;2300;51.874;8.430;2023-06-14T08:46:17;4.55;;;0.90;;
4575;SDS011;2300;51.874;8.430;2023-06-14T08:48:47;5.50;;;1.10;;
4575;SDS011;2300;51.874;8.430;2023-06-14T08:51:18;1.42;;;0.90;;
4575;SDS011;2300;51.874;8.430;2023-06-14T08:53:48;3.17;;;1.10;;
4575;SDS011;2300;51.874;8.430;2023-06-14T08:56:19;3.25;;;1.50;;
4575;SDS011;2300;51.874;8.430;2023-06-14T08:58:47;2.95;;;1.05;;
4575;SDS011;2300;51.874;8.430;2023-06-14T09:01:15;5.60;;;1.48;;
4575;SDS011;2300;51.874;8.430;2023-06-14T09:03:44;3.10;;;1.13;;
4575;SDS011;2300;51.874;8.430;2023-06-14T09:06:14;4.38;;;1.27;;
4575;SDS011;2300;51.874;8.430;2023-06-14T09:08:44;3.72;;;1.30;;
4575;SDS011;2300;51.874;8.430;2023-06-14T09:11:14;2.05;;;1.25;;
4575;SDS011;2300;51.874;8.430;2023-06-14T09:13:43;3.75;;;1.10;;
4575;SDS011;2300;51.874;8.430;2023-06-14T09:16:12;4.07;;;1.52;;
4575;SDS011;2300;51.874;8.430;2023-06-14T09:18:40;2.38;;;1.08;;
4575;SDS011;2300;51.874;8.430;2023-06-14T09:21:10;4.95;;;1.67;;
4575;SDS011;2300;51.874;8.430;2023-06-14T09:23:37;2.75;;;1.48;;
4575;SDS011;2300;51.874;8.430;2023-06-14T09:26:06;2.97;;;1.35;;
4575;SDS011;2300;51.874;8.430;2023-06-14T09:28:36;5.00;;;1.58;;
4575;SDS011;2300;51.874;8.430;2023-06-14T09:31:07;2.15;;;1.38;;
4575;SDS011;2300;51.874;8.430;2023-06-14T09:33:35;5.82;;;1.58;;
4575;SDS011;2300;51.874;8.430;2023-06-14T09:36:08;3.25;;;1.65;;
4575;SDS011;2300;51.874;8.430;2023-06-14T09:38:38;4.18;;;1.65;;
4575;SDS011;2300;51.874;8.430;2023-06-14T09:41:07;3.78;;;1.83;;
4575;SDS011;2300;51.874;8.430;2023-06-14T09:43:36;5.78;;;1.88;;
4575;SDS011;2300;51.874;8.430;2023-06-14T09:46:04;4.75;;;1.80;;
4575;SDS011;2300;51.874;8.430;2023-06-14T09:48:33;5.00;;;1.88;;
4575;SDS011;2300;51.874;8.430;2023-06-14T09:51:00;2.92;;;1.92;;
4575;SDS011;2300;51.874;8.430;2023-06-14T09:53:29;4.20;;;1.90;;
4575;SDS011;2300;51.874;8.430;2023-06-14T09:55:58;3.78;;;2.10;;
4575;SDS011;2300;51.874;8.430;2023-06-14T09:58:28;4.13;;;2.30;;
4575;SDS011;2300;51.874;8.430;2023-06-14T10:00:58;4.05;;;2.20;;
4575;SDS011;2300;51.874;8.430;2023-06-14T10:03:30;2.72;;;2.05;;
4575;SDS011;2300;51.874;8.430;2023-06-14T10:05:59;4.38;;;1.85;;
4575;SDS011;2300;51.874;8.430;2023-06-14T10:08:30;3.92;;;2.00;;
4575;SDS011;2300;51.874;8.430;2023-06-14T10:10:59;5.82;;;2.60;;
4575;SDS011;2300;51.874;8.430;2023-06-14T10:13:26;4.38;;;1.95;;
4575;SDS011;2300;51.874;8.430;2023-06-14T10:15:56;3.70;;;1.90;;
4575;SDS011;2300;51.874;8.430;2023-06-14T10:18:33;3.17;;;1.75;;
4575;SDS011;2300;51.874;8.430;2023-06-14T10:21:13;4.60;;;1.90;;
4575;SDS011;2300;51.874;8.430;2023-06-14T10:23:45;4.30;;;1.80;;
4575;SDS011;2300;51.874;8.430;2023-06-14T10:26:17;2.75;;;2.05;;
4575;SDS011;2300;51.874;8.430;2023-06-14T10:28:57;3.35;;;1.80;;
4575;SDS011;2300;51.874;8.430;2023-06-14T10:31:43;2.80;;;1.80;;
4575;SDS011;2300;51.874;8.430;2023-06-14T10:34:10;4.10;;;2.00;;
4575;SDS011;2300;51.874;8.430;2023-06-14T10:36:41;6.95;;;1.80;;
4575;SDS011;2300;51.874;8.430;2023-06-14T10:39:10;3.10;;;1.60;;
4575;SDS011;2300;51.874;8.430;2023-06-14T10:41:41;2.15;;;1.60;;
4575;SDS011;2300;51.874;8.430;2023-06-14T10:47:04;6.38;;;4.47;;
4575;SDS011;2300;51.874;8.430;2023-06-14T10:49:37;3.88;;;1.88;;
4575;SDS011;2300;51.874;8.430;2023-06-14T10:52:08;2.58;;;1.85;;
4575;SDS011;2300;51.874;8.430;2023-06-14T10:54:58;2.88;;;1.70;;
4575;SDS011;2300;51.874;8.430;2023-06-14T10:57:31;4.03;;;2.35;;
4575;SDS011;2300;51.874;8.430;2023-06-14T10:59:59;3.22;;;1.90;;
4575;SDS011;2300;51.874;8.430;2023-06-14T11:02:56;2.78;;;2.00;;
4575;SDS011;2300;51.874;8.430;2023-06-14T11:05:53;4.90;;;1.70;;
4575;SDS011;2300;51.874;8.430;2023-06-14T11:08:27;4.75;;;1.83;;
4575;SDS011;2300;51.874;8.430;2023-06-14T11:11:12;3.83;;;2.08;;
4575;SDS011;2300;51.874;8.430;2023-06-14T11:13:42;4.03;;;2.30;;
4575;SDS011;2300;51.874;8.430;2023-06-14T11:16:11;5.65;;;2.08;;
4575;SDS011;2300;51.874;8.430;2023-06-14T11:18:40;4.40;;;2.28;;
4575;SDS011;2300;51.874;8.430;2023-06-14T11:21:07;4.55;;;2.03;;
4575;SDS011;2300;51.874;8.430;2023-06-14T11:23:35;3.42;;;1.98;;
4575;SDS011;2300;51.874;8.430;2023-06-14T11:26:02;3.58;;;1.80;;
4575;SDS011;2300;51.874;8.430;2023-06-14T11:28:37;4.05;;;2.15;;
4575;SDS011;2300;51.874;8.430;2023-06-14T11:31:04;7.22;;;2.30;;
4575;SDS011;2300;51.874;8.430;2023-06-14T11:33:31;4.72;;;1.92;;
4575;SDS011;2300;51.874;8.430;2023-06-14T11:36:01;3.65;;;2.10;;
4575;SDS011;2300;51.874;8.430;2023-06-14T11:38:28;7.28;;;2.40;;
4575;SDS011;2300;51.874;8.430;2023-06-14T11:40:58;3.65;;;1.98;;
4575;SDS011;2300;51.874;8.430;2023-06-14T11:43:26;5.43;;;2.20;;
4575;SDS011;2300;51.874;8.430;2023-06-14T11:45:54;5.85;;;2.00;;
4575;SDS011;2300;51.874;8.430;2023-06-14T11:48:36;4.82;;;2.40;;
4575;SDS011;2300;51.874;8.430;2023-06-14T11:51:06;5.53;;;2.15;;
4575;SDS011;2300;51.874;8.430;2023-06-14T11:53:33;3.70;;;2.22;;
4575;SDS011;2300;51.874;8.430;2023-06-14T11:56:01;5.55;;;2.08;;
4575;SDS011;2300;51.874;8.430;2023-06-14T11:58:30;4.05;;;1.95;;
4575;SDS011;2300;51.874;8.430;2023-06-14T12:00:59;3.55;;;2.15;;
4575;SDS011;2300;51.874;8.430;2023-06-14T12:03:28;5.32;;;1.90;;
4575;SDS011;2300;51.874;8.430;2023-06-14T12:06:04;4.47;;;1.92;;
4575;SDS011;2300;51.874;8.430;2023-06-14T12:08:34;2.58;;;1.75;;
4575;SDS011;2300;51.874;8.430;2023-06-14T12:11:05;5.72;;;2.08;;
4575;SDS011;2300;51.874;8.430;2023-06-14T12:13:33;2.88;;;1.90;;
4575;SDS011;2300;51.874;8.430;2023-06-14T12:16:01;5.53;;;2.22;;
4575;SDS011;2300;51.874;8.430;2023-06-14T12:18:31;4.60;;;1.80;;
4575;SDS011;2300;51.874;8.430;2023-06-14T12:21:00;3.63;;;2.28;;
4575;SDS011;2300;51.874;8.430;2023-06-14T12:23:41;5.45;;;2.00;;
4575;SDS011;2300;51.874;8.430;2023-06-14T12:26:11;2.80;;;1.83;;
4575;SDS011;2300;51.874;8.430;2023-06-14T12:28:39;4.70;;;1.80;;
4575;SDS011;2300;51.874;8.430;2023-06-14T12:31:07;2.90;;;2.00;;
4575;SDS011;2300;51.874;8.430;2023-06-14T12:33:34;2.92;;;2.00;;
4575;SDS011;2300;51.874;8.430;2023-06-14T12:36:02;4.03;;;2.10;;
4575;SDS011;2300;51.874;8.430;2023-06-14T12:38:30;3.95;;;1.83;;
4575;SDS011;2300;51.874;8.430;2023-06-14T12:40:58;5.43;;;1.95;;
4575;SDS011;2300;51.874;8.430;2023-06-14T12:43:25;6.05;;;1.80;;
4575;SDS011;2300;51.874;8.430;2023-06-14T12:45:54;1.95;;;1.67;;
4575;SDS011;2300;51.874;8.430;2023-06-14T12:48:23;4.15;;;1.80;;
4575;SDS011;2300;51.874;8.430;2023-06-14T12:50:52;5.32;;;1.80;;
4575;SDS011;2300;51.874;8.430;2023-06-14T12:53:21;3.90;;;1.85;;
4575;SDS011;2300;51.874;8.430;2023-06-14T12:55:48;3.70;;;1.92;;
4575;SDS011;2300;51.874;8.430;2023-06-14T12:58:16;3.33;;;1.80;;
4575;SDS011;2300;51.874;8.430;2023-06-14T13:00:44;3.20;;;1.90;;
4575;SDS011;2300;51.874;8.430;2023-06-14T13:03:11;3.35;;;2.20;;
4575;SDS011;2300;51.874;8.430;2023-06-14T13:05:39;3.15;;;1.73;;
4575;SDS011;2300;51.874;8.430;2023-06-14T13:08:08;7.57;;;1.92;;
4575;SDS011;2300;51.874;8.430;2023-06-14T13:10:35;3.92;;;1.98;;
4575;SDS011;2300;51.874;8.430;2023-06-14T13:13:02;2.95;;;1.92;;
4575;SDS011;2300;51.874;8.430;2023-06-14T13:15:30;5.47;;;1.95;;
4575;SDS011;2300;51.874;8.430;2023-06-14T13:17:57;5.07;;;1.83;;
4575;SDS011;2300;51.874;8.430;2023-06-14T13:20:24;3.28;;;1.90;;
4575;SDS011;2300;51.874;8.430;2023-06-14T13:22:51;4.47;;;1.73;;
4575;SDS011;2300;51.874;8.430;2023-06-14T13:25:19;3.08;;;1.50;;
4575;SDS011;2300;51.874;8.430;2023-06-14T13:27:48;2.80;;;1.85;;
4575;SDS011;2300;51.874;8.430;2023-06-14T13:30:15;4.90;;;2.00;;
4575;SDS011;2300;51.874;8.430;2023-06-14T13:32:43;4.80;;;1.60;;
4575;SDS011;2300;51.874;8.430;2023-06-14T13:35:10;4.18;;;2.00;;
4575;SDS011;2300;51.874;8.430;2023-06-14T13:37:37;3.08;;;1.73;;
4575;SDS011;2300;51.874;8.430;2023-06-14T13:40:04;4.03;;;1.73;;
4575;SDS011;2300;51.874;8.430;2023-06-14T13:42:33;5.18;;;1.65;;
4575;SDS011;2300;51.874;8.430;2023-06-14T13:45:01;6.38;;;1.98;;
4575;SDS011;2300;51.874;8.430;2023-06-14T13:47:27;4.18;;;1.98;;
4575;SDS011;2300;51.874;8.430;2023-06-14T13:49:56;4.75;;;1.92;;
4575;SDS011;2300;51.874;8.430;2023-06-14T13:52:23;2.90;;;1.70;;
4575;SDS011;2300;51.874;8.430;2023-06-14T13:54:50;2.50;;;1.55;;
4575;SDS011;2300;51.874;8.430;2023-06-14T13:57:16;2.42;;;1.60;;
4575;SDS011;2300;51.874;8.430;2023-06-14T13:59:43;3.42;;;1.73;;
4575;SDS011;2300;51.874;8.430;2023-06-14T14:02:10;2.83;;;1.75;;
4575;SDS011;2300;51.874;8.430;2023-06-14T14:04:39;4.63;;;1.70;;
4575;SDS011;2300;51.874;8.430;2023-06-14T14:07:08;2.25;;;1.73;;
4575;SDS011;2300;51.874;8.430;2023-06-14T14:09:35;3.38;;;1.70;;
4575;SDS011;2300;51.874;8.430;2023-06-14T14:12:02;3.63;;;1.88;;
4575;SDS011;2300;51.874;8.430;2023-06-14T14:14:30;7.40;;;2.03;;
4575;SDS011;2300;51.874;8.430;2023-06-14T14:17:02;16.05;;;1.90;;
4575;SDS011;2300;51.874;8.430;2023-06-14T14:19:29;7.82;;;1.88;;
4575;SDS011;2300;51.874;8.430;2023-06-14T14:21:56;5.15;;;1.70;;
4575;SDS011;2300;51.874;8.430;2023-06-14T14:24:24;2.78;;;1.65;;
4575;SDS011;2300;51.874;8.430;2023-06-14T14:26:52;3.00;;;1.70;;
4575;SDS011;2300;51.874;8.430;2023-06-14T14:29:24;1.98;;;1.27;;
4575;SDS011;2300;51.874;8.430;2023-06-14T14:31:54;1.88;;;1.52;;
4575;SDS011;2300;51.874;8.430;2023-06-14T14:34:22;2.85;;;1.52;;
4575;SDS011;2300;51.874;8.430;2023-06-14T14:36:49;3.10;;;1.50;;
4575;SDS011;2300;51.874;8.430;2023-06-14T14:39:16;1.75;;;1.30;;
4575;SDS011;2300;51.874;8.430;2023-06-14T14:41:49;3.08;;;1.63;;
4575;SDS011;2300;51.874;8.430;2023-06-14T14:44:17;2.58;;;1.40;;
4575;SDS011;2300;51.874;8.430;2023-06-14T14:46:44;3.53;;;1.40;;
4575;SDS011;2300;51.874;8.430;2023-06-14T14:49:11;1.98;;;1.25;;
4575;SDS011;2300;51.874;8.430;2023-06-14T14:51:40;4.38;;;1.90;;
4575;SDS011;2300;51.874;8.430;2023-06-14T14:54:07;1.58;;;1.30;;
4575;SDS011;2300;51.874;8.430;2023-06-14T14:56:35;1.75;;;1.50;;
4575;SDS011;2300;51.874;8.430;2023-06-14T14:59:04;3.28;;;1.50;;
4575;SDS011;2300;51.874;8.430;2023-06-14T15:01:31;3.13;;;1.70;;
4575;SDS011;2300;51.874;8.430;2023-06-14T15:03:57;2.42;;;1.45;;
4575;SDS011;2300;51.874;8.430;2023-06-14T15:06:24;2.75;;;1.48;;
4575;SDS011;2300;51.874;8.430;2023-06-14T15:08:51;4.70;;;1.75;;
4575;SDS011;2300;51.874;8.430;2023-06-14T15:11:18;2.33;;;1.48;;
4575;SDS011;2300;51.874;8.430;2023-06-14T15:13:45;2.33;;;1.30;;
4575;SDS011;2300;51.874;8.430;2023-06-14T15:16:15;3.47;;;1.20;;
4575;SDS011;2300;51.874;8.430;2023-06-14T15:18:41;1.92;;;1.25;;
4575;SDS011;2300;51.874;8.430;2023-06-14T15:21:08;5.90;;;1.73;;
4575;SDS011;2300;51.874;8.430;2023-06-14T15:23:35;3.88;;;2.00;;
4575;SDS011;2300;51.874;8.430;2023-06-14T15:26:01;4.97;;;2.20;;